El Dorado, AR

10:13 AM CDT on July 31, 2014 (GMT -0500)
South Arkansas Regional At Goodwin (KELD) Elev 276 ft | 33.22 °N, 92.81 °W | Change Station

Current weather conditions updated 20 minutes ago

Mostly Cloudy
Mostly Cloudy
69 °F
Feels Like 69 °F
N
5
Wind Variable Wind from ENE

Today is forecast to be Much Cooler than yesterday. Scattered thunderstorms.

Today
High -- | Low -- °F
--% Chance of Precip.
Yesterday
High -- | Low -- °F
Precip. -- in
6:22 AM 8:10 PM
Waxing Crescent, 19% visible
Pressure 30.07 in
Visibility 8.0 miles
Clouds Mostly Cloudy 10000 ft
Dew Point 67 °F
Humidity 93%
Rainfall 0.06 in
Snow Depth Not available.
UV 3 out of 12
Pollen 3.20 out of 12
Air Quality Not available.
Flu Activity Not available.
METAR KELD 311453Z AUTO 07004KT 8SM BKN100 21/19 A3008 RMK AO2 RAE15 SLP182 P0001 60002 T02060194 52002

More Conditions Fewer Conditions

Pressure 30.07 in
Visibility 8.0 miles
Clouds Mostly Cloudy 10000 ft
Dew Point 67 °F
Humidity 93%
Rainfall 0.06 in
Snow Depth Not available.
UV 3 out of 12
Pollen 3.20 out of 12
Air Quality Not available.
Flu Activity Not available.
METAR KELD 311453Z AUTO 07004KT 8SM BKN100 21/19 A3008 RMK AO2 RAE15 SLP182 P0001 60002 T02060194 52002

More Conditions Fewer Conditions

Nowcast | as of 8:49 am CDT on July 31, 2014

Widespread rain showers continue across the four state region this morning. The heavier downpours will move across Longview and Marshall. Movement of this activity was to the southeast near 20 mph. Rainfall rates will be light...except near thunderstorms...where rates could reach one quarter to one half inch per hour.

×

10-Day Weather Forecast

Almanac

Astronomy

Jul. 31, 2014 Rise Set
Actual Time 6:22 AM CDT 8:10 PM CDT
Civil Twilight 5:55 AM CDT 8:37 PM CDT
Nautical Twilight 5:23 AM CDT 9:10 PM CDT
Astronomical Twilight 4:48 AM CDT 9:45 PM CDT
Moon 10:34 AM CDT 10:41 PM CDT
Length of Visible Light 14h 41m
Length of Day
13h 47m
Tomorrow will be 1m 30s shorter.
Waxing Crescent, 19% of the Moon is Illuminated
Today
Waxing Crescent
Aug 3
First Quarter
Aug 10
Full
Aug 17
Last Quarter
Aug 25
New

Today's Extremes

State Highs State Lows

Community

WunderPhotos

Upload Photos

1,739,352 photos uploaded!

Nearby

Snow Depth

Station Depth Elevation
No new snow has been reported.

Earthquake Activity

City Distance Mag. Time & Date
No recent earthquake activity has been reported nearby.
Minimum magnitude displayed is 2.5.

Coastal Water Temperatures

Place Temperature
No Stations Reporting

Nearby Weather Stations

Station Location Temp. Dew Point Humidity Wind Precip. Elev Updated Type
MesoWest NORPLT , Norphlet, AR 65 °F - - North  at  - 0.00 in / hr 117 ft 6:35 AM CDT MADIS
MesoWest ELLIOT , Louann, AR 70 °F - - North  at  - 0.00 in / hr 229 ft 8:35 AM CDT MADIS

Show More Stations Show Fewer Stations